createdAt,value
2023-09-23T00:05:17.666Z,100509.34
2023-09-23T00:10:40.075Z,100515.59
2023-09-23T00:16:04.361Z,100524.47
2023-09-23T00:21:26.177Z,100531.38
2023-09-23T00:26:49.671Z,100529.84
2023-09-23T00:32:13.660Z,100542.13
2023-09-23T00:37:35.324Z,100551.63
2023-09-23T00:42:57.818Z,100536.84
2023-09-23T00:48:19.802Z,100544.13
2023-09-23T00:53:42.010Z,100553.63
2023-09-23T00:59:08.059Z,100559.75
2023-09-23T01:04:30.631Z,100569.66
2023-09-23T01:09:52.229Z,100564.53
2023-09-23T01:15:14.146Z,100571.25
2023-09-23T01:20:38.563Z,100576.53
2023-09-23T01:26:00.212Z,100575.03
2023-09-23T01:31:23.627Z,100575.78
2023-09-23T01:36:45.392Z,100588.81
2023-09-23T01:42:08.665Z,100584.53
2023-09-23T01:47:30.449Z,100580.19
2023-09-23T01:52:52.471Z,100585.78
2023-09-23T01:58:15.354Z,100586.63
2023-09-23T02:03:37.097Z,100597.25
2023-09-23T02:08:58.795Z,100602.69
2023-09-23T02:14:20.407Z,100604.63
2023-09-23T02:19:42.216Z,100604.69
2023-09-23T02:25:08.978Z,100616.94
2023-09-23T02:30:32.036Z,100623.19
2023-09-23T02:35:53.953Z,100632.13
2023-09-23T02:41:15.664Z,100641.91
2023-09-23T02:46:38.487Z,100652.31
2023-09-23T02:52:00.050Z,100658.53
2023-09-23T02:57:22.166Z,100658.75
2023-09-23T03:02:54.561Z,100661.53
2023-09-23T03:08:16.507Z,100677.31
2023-09-23T03:13:38.137Z,100687.56
2023-09-23T03:19:12.067Z,100692.91
2023-09-23T03:24:33.980Z,100700.84
2023-09-23T03:29:56.299Z,100709.59
2023-09-23T03:35:19.190Z,100717.59
2023-09-23T03:40:40.878Z,100714.31
2023-09-23T03:46:02.515Z,100722.50
2023-09-23T03:51:25.317Z,100727.09
2023-09-23T03:56:46.876Z,100747.47
2023-09-23T04:02:08.614Z,100740.88
2023-09-23T04:07:30.208Z,100740.03
2023-09-23T04:12:52.724Z,100753.38
2023-09-23T04:18:14.346Z,100762.19
2023-09-23T04:23:36.727Z,100763.22
2023-09-23T04:28:59.265Z,100758.88
2023-09-23T04:34:20.902Z,100772.50
2023-09-23T04:39:42.551Z,100783.75
2023-09-23T04:45:05.089Z,100794.16
2023-09-23T04:50:28.857Z,100794.16
2023-09-23T04:55:50.602Z,100793.88
2023-09-23T05:01:13.451Z,100798.25
2023-09-23T05:06:36.916Z,100803.47
2023-09-23T05:11:59.155Z,100801.97
2023-09-23T05:17:23.094Z,100825.50
2023-09-23T05:22:44.851Z,100825.31
2023-09-23T05:28:09.179Z,100836.44
2023-09-23T05:33:32.379Z,100855.53
2023-09-23T05:38:53.923Z,100858.28
2023-09-23T05:44:17.553Z,100871.34
2023-09-23T05:49:40.085Z,100874.03
2023-09-23T05:55:01.960Z,100890.06
2023-09-23T06:00:23.789Z,100889.88
2023-09-23T06:05:46.030Z,100905.84
2023-09-23T06:11:08.964Z,100921.59
2023-09-23T06:16:30.644Z,100933.09
2023-09-23T06:21:55.010Z,100938.31
2023-09-23T06:27:17.905Z,100948.47
2023-09-23T06:32:39.646Z,100969.16
2023-09-23T06:38:01.251Z,100966.69
2023-09-23T06:43:22.932Z,100973.59
2023-09-23T06:48:44.609Z,100988.25
2023-09-23T06:54:06.437Z,100994.91
2023-09-23T06:59:28.044Z,101004.28
2023-09-23T07:04:49.921Z,101006.75
2023-09-23T07:10:12.003Z,101006.66
2023-09-23T07:15:38.281Z,101020.44
2023-09-23T07:20:59.957Z,101028.91
2023-09-23T07:26:22.958Z,101030.47
2023-09-23T07:31:44.597Z,101050.00
2023-09-23T07:37:07.882Z,101055.75
2023-09-23T07:42:30.649Z,101065.91
2023-09-23T07:47:52.309Z,101074.50
2023-09-23T07:53:13.971Z,101082.91
2023-09-23T07:58:35.572Z,101091.44
2023-09-23T08:03:57.127Z,101090.44
2023-09-23T08:09:18.713Z,101108.44
2023-09-23T08:14:40.341Z,101113.53
2023-09-23T08:20:12.654Z,101115.19
2023-09-23T08:25:37.605Z,101121.84
2023-09-23T08:30:59.142Z,101129.25
2023-09-23T08:36:20.729Z,101144.72
2023-09-23T08:41:42.385Z,101134.69
2023-09-23T08:47:05.611Z,101134.47
2023-09-23T08:52:28.061Z,101136.53
2023-09-23T08:57:49.618Z,101147.28
2023-09-23T09:03:11.233Z,101149.75
2023-09-23T09:08:33.183Z,101155.75
2023-09-23T09:13:55.228Z,101159.03
2023-09-23T09:19:16.925Z,101173.56
2023-09-23T09:24:38.577Z,101165.03
2023-09-23T09:30:12.498Z,101184.69
2023-09-23T09:35:35.363Z,101183.25
2023-09-23T09:41:05.863Z,101189.56
2023-09-23T09:46:30.851Z,101197.84
2023-09-23T09:51:53.492Z,101196.94
2023-09-23T09:57:15.210Z,101197.38
2023-09-23T10:02:38.467Z,101206.41
2023-09-23T10:08:00.912Z,101212.84
2023-09-23T10:13:25.672Z,101210.75
2023-09-23T10:18:58.543Z,101222.66
2023-09-23T10:24:21.742Z,101234.00
2023-09-23T10:29:51.097Z,101238.59
2023-09-23T10:35:12.864Z,101240.00
2023-09-23T10:40:34.496Z,101254.69
2023-09-23T10:45:58.588Z,101258.91
2023-09-23T10:51:20.268Z,101268.81
2023-09-23T10:56:42.496Z,101267.53
2023-09-23T11:02:05.791Z,101269.72
2023-09-23T11:07:28.603Z,101271.91
2023-09-23T11:12:50.330Z,101283.75
2023-09-23T11:18:17.168Z,101287.16
2023-09-23T11:23:40.055Z,101295.34
2023-09-23T11:29:01.683Z,101288.88
2023-09-23T11:34:23.294Z,101292.56
2023-09-23T11:39:44.889Z,101301.44
2023-09-23T11:45:06.912Z,101301.50
2023-09-23T11:50:28.629Z,101296.25
2023-09-23T11:55:50.513Z,101303.25
2023-09-23T12:01:12.145Z,101295.78
2023-09-23T12:06:37.806Z,101298.00
2023-09-23T12:11:59.449Z,101297.88
2023-09-23T12:17:21.120Z,101300.78
2023-09-23T12:22:42.886Z,101300.63
2023-09-23T12:28:05.225Z,101310.03
2023-09-23T12:33:26.832Z,101298.03
2023-09-23T12:38:48.705Z,101304.00
2023-09-23T12:44:10.976Z,101314.41
2023-09-23T12:49:32.630Z,101316.03
2023-09-23T12:54:54.242Z,101333.69
2023-09-23T13:00:15.928Z,101338.66
2023-09-23T13:05:38.132Z,101335.50
2023-09-23T13:11:13.872Z,101347.38
2023-09-23T13:16:35.519Z,101362.50
2023-09-23T13:21:57.168Z,101355.63
2023-09-23T13:27:19.502Z,101368.81
2023-09-23T13:32:41.274Z,101381.44
2023-09-23T13:38:03.052Z,101386.38
2023-09-23T13:43:25.352Z,101379.16
2023-09-23T13:48:47.161Z,101394.41
2023-09-23T13:54:08.983Z,101409.50
2023-09-23T13:59:30.558Z,101423.38
2023-09-23T14:04:52.144Z,101425.59
2023-09-23T14:10:21.310Z,101437.28
2023-09-23T14:15:44.259Z,101446.63
2023-09-23T14:21:05.924Z,101456.97
2023-09-23T14:26:27.514Z,101458.31
2023-09-23T14:31:49.100Z,101465.63
2023-09-23T14:37:10.709Z,101465.47
2023-09-23T14:42:32.340Z,101471.00
2023-09-23T14:47:54.073Z,101482.13
2023-09-23T14:53:17.202Z,101498.63
2023-09-23T14:58:39.504Z,101481.59
2023-09-23T15:04:01.349Z,101491.94
2023-09-23T15:09:23.416Z,101484.22
2023-09-23T15:14:46.377Z,101496.09
2023-09-23T15:20:12.737Z,101508.13
2023-09-23T15:25:34.585Z,101508.00
2023-09-23T15:30:57.795Z,101515.13
2023-09-23T15:36:19.612Z,101529.03
2023-09-23T15:41:53.849Z,101526.38
2023-09-23T15:47:20.103Z,101537.44
2023-09-23T15:52:43.550Z,101551.81
2023-09-23T15:58:05.455Z,101557.25
2023-09-23T16:03:27.208Z,101570.41
2023-09-23T16:08:49.220Z,101571.34
2023-09-23T16:14:12.033Z,101579.59
2023-09-23T16:19:34.503Z,101571.75
2023-09-23T16:24:58.881Z,101582.63
2023-09-23T16:30:20.479Z,101599.34
2023-09-23T16:35:42.185Z,101603.94
2023-09-23T16:41:04.196Z,101612.03
2023-09-23T16:46:26.274Z,101628.69
2023-09-23T16:51:49.242Z,101636.59
2023-09-23T16:57:11.276Z,101646.41
2023-09-23T17:02:33.396Z,101657.09
2023-09-23T17:07:55.294Z,101669.34
2023-09-23T17:13:16.991Z,101662.47
2023-09-23T17:18:38.786Z,101667.88
2023-09-23T17:24:00.799Z,101677.44
2023-09-23T17:29:22.537Z,101680.06
2023-09-23T17:34:45.579Z,101687.47
2023-09-23T17:40:08.188Z,101697.94
2023-09-23T17:45:29.845Z,101708.59
2023-09-23T17:50:56.153Z,101713.47
2023-09-23T17:56:17.909Z,101734.41
2023-09-23T18:01:39.556Z,101738.84
2023-09-23T18:07:01.185Z,101747.69
2023-09-23T18:12:23.113Z,101759.22
2023-09-23T18:17:44.780Z,101762.84
2023-09-23T18:23:07.110Z,101772.78
2023-09-23T18:28:29.208Z,101775.72
2023-09-23T18:33:51.413Z,101792.19
2023-09-23T18:39:13.276Z,101804.50
2023-09-23T18:44:34.907Z,101807.97
2023-09-23T18:49:56.634Z,101825.38
2023-09-23T18:55:18.333Z,101827.44
2023-09-23T19:00:41.083Z,101844.91
2023-09-23T19:06:03.110Z,101852.94
2023-09-23T19:11:24.797Z,101855.66
2023-09-23T19:16:46.413Z,101870.59
2023-09-23T19:22:14.097Z,101878.78
2023-09-23T19:27:36.572Z,101876.31
2023-09-23T19:32:58.372Z,101886.97
2023-09-23T19:38:20.255Z,101909.78
2023-09-23T19:43:42.004Z,101909.13
2023-09-23T19:49:03.698Z,101919.75
2023-09-23T19:54:26.421Z,101934.63
2023-09-23T19:59:48.149Z,101942.59
2023-09-23T20:05:11.641Z,101948.00
2023-09-23T20:10:35.674Z,101948.22
2023-09-23T20:15:58.287Z,101964.00
2023-09-23T20:21:20.269Z,101981.41
2023-09-23T20:26:41.986Z,101966.91
2023-09-23T20:32:03.875Z,101979.28
2023-09-23T20:37:25.469Z,101987.25
2023-09-23T20:42:47.303Z,101996.09
2023-09-23T20:48:10.204Z,102002.13
2023-09-23T20:53:35.748Z,102005.66
2023-09-23T20:58:58.339Z,102009.28
2023-09-23T21:04:20.185Z,102024.03
2023-09-23T21:09:42.348Z,102020.59
2023-09-23T21:15:04.680Z,102036.53
2023-09-23T21:20:26.770Z,102041.78
2023-09-23T21:25:53.501Z,102048.09
2023-09-23T21:31:16.618Z,102056.94
2023-09-23T21:36:40.178Z,102070.00
2023-09-23T21:42:02.309Z,102091.84
2023-09-23T21:47:24.035Z,102093.63
2023-09-23T21:52:45.636Z,102105.69
2023-09-23T21:58:07.255Z,102099.56
2023-09-23T22:03:32.044Z,102111.72
2023-09-23T22:08:54.186Z,102103.97
2023-09-23T22:14:16.380Z,102103.91
2023-09-23T22:19:38.846Z,102106.44
2023-09-23T22:25:00.462Z,102103.84
2023-09-23T22:30:27.009Z,102112.66
2023-09-23T22:35:48.935Z,102114.34
2023-09-23T22:41:10.681Z,102115.34
2023-09-23T22:46:32.342Z,102121.56
2023-09-23T22:51:54.614Z,102126.06
2023-09-23T22:57:16.162Z,102126.06
2023-09-23T23:02:39.196Z,102131.41
2023-09-23T23:08:02.267Z,102141.81
2023-09-23T23:13:23.829Z,102141.91
2023-09-23T23:18:45.722Z,102163.63
2023-09-23T23:24:07.750Z,102149.78
2023-09-23T23:29:29.421Z,102158.66
2023-09-23T23:34:52.512Z,102169.19
2023-09-23T23:40:14.203Z,102175.34
2023-09-23T23:45:35.843Z,102178.88
2023-09-23T23:51:10.525Z,102190.19
2023-09-23T23:56:32.493Z,102192.78
